sensor_id;sensor_type;location;lat;lon;timestamp;pressure;altitude;pressure_sealevel;temperature;humidity
23281;BME280;11809;56.390;-3.266;2023-02-13T08:55:38;102787.41;;;15.80;56.00
23281;BME280;11809;56.390;-3.266;2023-02-13T08:58:05;102788.16;;;15.84;55.62
23281;BME280;11809;56.390;-3.266;2023-02-13T09:00:32;102783.72;;;15.84;55.38
23281;BME280;11809;56.390;-3.266;2023-02-13T09:03:00;102772.22;;;15.85;55.67
23281;BME280;11809;56.390;-3.266;2023-02-13T09:05:29;102773.91;;;15.88;55.37
23281;BME280;11809;56.390;-3.266;2023-02-13T09:07:59;102772.91;;;15.92;55.46
23281;BME280;11809;56.390;-3.266;2023-02-13T09:10:29;102776.34;;;15.95;55.39
23281;BME280;11809;56.390;-3.266;2023-02-13T09:12:57;102773.63;;;15.98;55.25
23281;BME280;11809;56.390;-3.266;2023-02-13T09:15:24;102773.53;;;16.01;55.16
23281;BME280;11809;56.390;-3.266;2023-02-13T09:17:51;102779.66;;;16.03;54.94
23281;BME280;11809;56.390;-3.266;2023-02-13T09:20:18;102771.78;;;16.00;55.40
23281;BME280;11809;56.390;-3.266;2023-02-13T09:22:45;102783.03;;;16.08;54.93
23281;BME280;11809;56.390;-3.266;2023-02-13T09:25:12;102784.72;;;16.11;54.89
23281;BME280;11809;56.390;-3.266;2023-02-13T09:27:39;102774.34;;;15.72;51.40
23281;BME280;11809;56.390;-3.266;2023-02-13T09:30:07;102771.41;;;15.83;52.34
23281;BME280;11809;56.390;-3.266;2023-02-13T09:32:35;102773.66;;;15.97;53.55
23281;BME280;11809;56.390;-3.266;2023-02-13T09:35:06;102774.28;;;16.05;53.62
23281;BME280;11809;56.390;-3.266;2023-02-13T09:37:33;102764.53;;;16.07;54.04
23281;BME280;11809;56.390;-3.266;2023-02-13T09:40:00;102765.28;;;16.10;54.08
23281;BME280;11809;56.390;-3.266;2023-02-13T09:42:30;102763.47;;;16.12;53.49
23281;BME280;11809;56.390;-3.266;2023-02-13T09:45:02;102760.53;;;16.21;53.80
23281;BME280;11809;56.390;-3.266;2023-02-13T09:47:35;102750.66;;;16.26;53.92
23281;BME280;11809;56.390;-3.266;2023-02-13T09:50:06;102746.03;;;16.33;54.00
23281;BME280;11809;56.390;-3.266;2023-02-13T09:52:38;102748.53;;;16.37;53.82
23281;BME280;11809;56.390;-3.266;2023-02-13T09:55:22;102747.56;;;16.42;53.98
23281;BME280;11809;56.390;-3.266;2023-02-13T09:58:14;102746.53;;;16.46;53.82
23281;BME280;11809;56.390;-3.266;2023-02-13T10:00:52;102736.78;;;16.46;53.74
23281;BME280;11809;56.390;-3.266;2023-02-13T10:03:36;102728.97;;;16.42;53.93
23281;BME280;11809;56.390;-3.266;2023-02-13T10:06:32;102740.13;;;16.53;53.68
23281;BME280;11809;56.390;-3.266;2023-02-13T10:09:19;102740.91;;;16.56;53.66
23281;BME280;11809;56.390;-3.266;2023-02-13T10:17:33;102747.75;;;16.63;53.54
23281;BME280;11809;56.390;-3.266;2023-02-13T10:20:09;102738.84;;;16.66;53.48
23281;BME280;11809;56.390;-3.266;2023-02-13T10:22:51;102741.38;;;16.69;53.67
23281;BME280;11809;56.390;-3.266;2023-02-13T10:25:24;102723.44;;;16.48;52.27
23281;BME280;11809;56.390;-3.266;2023-02-13T10:28:11;102730.13;;;16.61;52.53
23281;BME280;11809;56.390;-3.266;2023-02-13T10:30:48;102749.16;;;16.47;53.29
23281;BME280;11809;56.390;-3.266;2023-02-13T10:33:26;102745.06;;;16.35;53.81
23281;BME280;11809;56.390;-3.266;2023-02-13T10:36:11;102740.81;;;16.30;54.27
23281;BME280;11809;56.390;-3.266;2023-02-13T10:38:47;102746.13;;;16.30;54.01
23281;BME280;11809;56.390;-3.266;2023-02-13T10:49:54;102744.44;;;16.27;54.55
23281;BME280;11809;56.390;-3.266;2023-02-13T11:03:28;102755.22;;;16.51;54.51
23281;BME280;11809;56.390;-3.266;2023-02-13T11:05:58;102747.16;;;16.55;54.58
23281;BME280;11809;56.390;-3.266;2023-02-13T11:08:38;102752.34;;;16.58;54.29
23281;BME280;11809;56.390;-3.266;2023-02-13T11:11:32;102740.66;;;16.64;54.24
23281;BME280;11809;56.390;-3.266;2023-02-13T11:14:12;102741.72;;;16.58;54.60
23281;BME280;11809;56.390;-3.266;2023-02-13T11:19:23;102751.25;;;16.65;55.29
23281;BME280;11809;56.390;-3.266;2023-02-13T11:21:58;102756.25;;;16.74;54.83
23281;BME280;11809;56.390;-3.266;2023-02-13T11:24:28;102741.91;;;16.80;54.36
23281;BME280;11809;56.390;-3.266;2023-02-13T11:27:08;102742.78;;;16.80;54.31
23281;BME280;11809;56.390;-3.266;2023-02-13T11:29:59;102743.47;;;16.87;54.17
23281;BME280;11809;56.390;-3.266;2023-02-13T11:32:32;102748.19;;;16.77;52.24
23281;BME280;11809;56.390;-3.266;2023-02-13T11:35:24;102745.50;;;16.79;52.85
23281;BME280;11809;56.390;-3.266;2023-02-13T11:40:43;102725.22;;;16.76;53.78
23281;BME280;11809;56.390;-3.266;2023-02-13T11:43:32;102731.88;;;16.89;53.88
23281;BME280;11809;56.390;-3.266;2023-02-13T11:46:15;102720.47;;;16.86;53.73
23281;BME280;11809;56.390;-3.266;2023-02-13T11:48:55;102714.28;;;16.85;53.73
23281;BME280;11809;56.390;-3.266;2023-02-13T11:51:43;102708.81;;;16.90;53.86
23281;BME280;11809;56.390;-3.266;2023-02-13T11:54:22;102708.81;;;16.90;54.28
23281;BME280;11809;56.390;-3.266;2023-02-13T11:56:55;102705.41;;;16.86;54.91
23281;BME280;11809;56.390;-3.266;2023-02-13T11:59:39;102701.09;;;16.82;55.27
23281;BME280;11809;56.390;-3.266;2023-02-13T12:02:21;102710.25;;;16.74;54.94
23281;BME280;11809;56.390;-3.266;2023-02-13T12:04:52;102695.59;;;16.62;55.97
23281;BME280;11809;56.390;-3.266;2023-02-13T12:07:28;102698.19;;;16.64;56.20
23281;BME280;11809;56.390;-3.266;2023-02-13T12:10:07;102694.91;;;16.56;56.01
23281;BME280;11809;56.390;-3.266;2023-02-13T12:15:27;102693.19;;;16.55;56.33
23281;BME280;11809;56.390;-3.266;2023-02-13T12:23:37;102704.56;;;16.58;56.42
23281;BME280;11809;56.390;-3.266;2023-02-13T12:26:25;102699.25;;;16.58;56.35
23281;BME280;11809;56.390;-3.266;2023-02-13T12:32:25;102683.63;;;16.48;56.38
23281;BME280;11809;56.390;-3.266;2023-02-13T12:45:57;102690.53;;;16.55;56.15
23281;BME280;11809;56.390;-3.266;2023-02-13T12:51:09;102681.53;;;16.59;56.22
23281;BME280;11809;56.390;-3.266;2023-02-13T12:59:00;102686.91;;;16.57;56.04
23281;BME280;11809;56.390;-3.266;2023-02-13T13:01:57;102684.25;;;16.57;56.36
23281;BME280;11809;56.390;-3.266;2023-02-13T13:07:28;102684.09;;;16.62;56.12
23281;BME280;11809;56.390;-3.266;2023-02-13T13:23:41;102651.66;;;16.52;52.27
23281;BME280;11809;56.390;-3.266;2023-02-13T13:28:52;102642.91;;;16.76;53.06
23281;BME280;11809;56.390;-3.266;2023-02-13T13:31:21;102643.91;;;16.72;51.13
23281;BME280;11809;56.390;-3.266;2023-02-13T13:33:54;102650.94;;;16.47;48.93
23281;BME280;11809;56.390;-3.266;2023-02-13T13:39:03;102643.09;;;16.16;47.63
23281;BME280;11809;56.390;-3.266;2023-02-13T13:41:46;102641.59;;;16.08;47.69
23281;BME280;11809;56.390;-3.266;2023-02-13T13:47:38;102626.16;;;15.93;47.33
23281;BME280;11809;56.390;-3.266;2023-02-13T13:50:34;102621.81;;;15.90;47.50
23281;BME280;11809;56.390;-3.266;2023-02-13T13:58:37;102601.44;;;15.63;46.31
23281;BME280;11809;56.390;-3.266;2023-02-13T14:03:45;102606.75;;;15.63;46.64
23281;BME280;11809;56.390;-3.266;2023-02-13T14:06:18;102604.06;;;15.92;47.65
23281;BME280;11809;56.390;-3.266;2023-02-13T14:11:35;102600.81;;;16.10;53.76
23281;BME280;11809;56.390;-3.266;2023-02-13T14:17:00;102596.41;;;16.11;54.89
23281;BME280;11809;56.390;-3.266;2023-02-13T14:19:31;102585.34;;;16.24;54.08
23281;BME280;11809;56.390;-3.266;2023-02-13T14:24:54;102583.63;;;16.50;52.23
23281;BME280;11809;56.390;-3.266;2023-02-13T14:29:53;102583.13;;;16.65;52.11
23281;BME280;11809;56.390;-3.266;2023-02-13T14:32:32;102579.31;;;16.72;52.03
23281;BME280;11809;56.390;-3.266;2023-02-13T14:35:24;102582.69;;;16.77;52.24
23281;BME280;11809;56.390;-3.266;2023-02-13T14:37:57;102579.13;;;16.78;52.17
23281;BME280;11809;56.390;-3.266;2023-02-13T14:40:41;102577.28;;;16.80;52.36
23281;BME280;11809;56.390;-3.266;2023-02-13T14:46:17;102562.97;;;16.84;52.51
23281;BME280;11809;56.390;-3.266;2023-02-13T14:48:54;102569.69;;;16.94;52.34
23281;BME280;11809;56.390;-3.266;2023-02-13T14:51:31;102564.25;;;16.97;52.28
23281;BME280;11809;56.390;-3.266;2023-02-13T14:54:04;102559.75;;;16.99;52.75
23281;BME280;11809;56.390;-3.266;2023-02-13T14:56:32;102566.84;;;16.98;52.54
23281;BME280;11809;56.390;-3.266;2023-02-13T14:59:24;102552.00;;;16.93;52.79
23281;BME280;11809;56.390;-3.266;2023-02-13T15:01:58;102558.84;;;17.00;52.74
23281;BME280;11809;56.390;-3.266;2023-02-13T15:04:34;102542.22;;;16.95;53.09
23281;BME280;11809;56.390;-3.266;2023-02-13T15:07:13;102545.69;;;16.97;53.14
23281;BME280;11809;56.390;-3.266;2023-02-13T15:09:48;102561.25;;;17.06;53.26
23281;BME280;11809;56.390;-3.266;2023-02-13T15:12:29;102558.56;;;17.08;53.19
23281;BME280;11809;56.390;-3.266;2023-02-13T15:14:57;102564.69;;;17.10;53.29
23281;BME280;11809;56.390;-3.266;2023-02-13T15:17:32;102557.47;;;17.13;53.33
23281;BME280;11809;56.390;-3.266;2023-02-13T15:22:46;102556.53;;;17.14;53.43
23281;BME280;11809;56.390;-3.266;2023-02-13T15:25:39;102549.41;;;17.16;53.30
23281;BME280;11809;56.390;-3.266;2023-02-13T15:28:20;102548.44;;;17.17;53.52
23281;BME280;11809;56.390;-3.266;2023-02-13T15:31:16;102551.88;;;17.21;53.57
23281;BME280;11809;56.390;-3.266;2023-02-13T15:33:48;102550.09;;;17.21;53.67
23281;BME280;11809;56.390;-3.266;2023-02-13T15:36:24;102543.00;;;17.22;53.86
23281;BME280;11809;56.390;-3.266;2023-02-13T15:39:02;102544.66;;;17.24;53.64
23281;BME280;11809;56.390;-3.266;2023-02-13T15:41:43;102549.03;;;17.25;53.50
23281;BME280;11809;56.390;-3.266;2023-02-13T15:44:17;102536.31;;;17.33;53.22
23281;BME280;11809;56.390;-3.266;2023-02-13T15:46:46;102548.91;;;17.28;53.42
23281;BME280;11809;56.390;-3.266;2023-02-13T15:49:16;102534.84;;;16.78;48.04
23281;BME280;11809;56.390;-3.266;2023-02-13T15:51:44;102535.03;;;16.74;49.43
23281;BME280;11809;56.390;-3.266;2023-02-13T15:54:27;102530.88;;;16.90;50.74
23281;BME280;11809;56.390;-3.266;2023-02-13T15:57:03;102531.22;;;17.04;51.18
23281;BME280;11809;56.390;-3.266;2023-02-13T15:59:36;102529.16;;;17.12;52.05
23281;BME280;11809;56.390;-3.266;2023-02-13T16:02:11;102529.06;;;17.15;52.24
23281;BME280;11809;56.390;-3.266;2023-02-13T16:04:40;102520.97;;;17.18;53.57
23281;BME280;11809;56.390;-3.266;2023-02-13T16:07:12;102512.25;;;17.15;53.30
23281;BME280;11809;56.390;-3.266;2023-02-13T16:09:40;102523.44;;;17.23;53.33
23281;BME280;11809;56.390;-3.266;2023-02-13T16:12:22;102521.66;;;17.23;52.85
23281;BME280;11809;56.390;-3.266;2023-02-13T16:14:57;102508.50;;;16.97;49.68
23281;BME280;11809;56.390;-3.266;2023-02-13T16:17:34;102523.84;;;16.64;47.82
23281;BME280;11809;56.390;-3.266;2023-02-13T16:20:16;102508.13;;;16.58;48.47
23281;BME280;11809;56.390;-3.266;2023-02-13T16:22:51;102523.19;;;16.82;50.12
23281;BME280;11809;56.390;-3.266;2023-02-13T16:25:34;102522.06;;;16.89;50.47
23281;BME280;11809;56.390;-3.266;2023-02-13T16:28:17;102517.38;;;16.96;50.95
23281;BME280;11809;56.390;-3.266;2023-02-13T16:30:58;102502.38;;;16.95;51.11
23281;BME280;11809;56.390;-3.266;2023-02-13T16:33:30;102508.78;;;16.89;49.61
23281;BME280;11809;56.390;-3.266;2023-02-13T16:54:24;102488.63;;;16.84;51.42
23281;BME280;11809;56.390;-3.266;2023-02-13T17:02:18;102502.31;;;16.96;52.19
23281;BME280;11809;56.390;-3.266;2023-02-13T17:04:56;102505.72;;;17.00;52.18
23281;BME280;11809;56.390;-3.266;2023-02-13T17:07:32;102502.13;;;17.01;52.53
23281;BME280;11809;56.390;-3.266;2023-02-13T17:10:09;102508.19;;;17.05;52.51
23281;BME280;11809;56.390;-3.266;2023-02-13T17:12:44;102502.97;;;17.03;52.63
23281;BME280;11809;56.390;-3.266;2023-02-13T17:15:13;102510.28;;;16.96;53.13
23281;BME280;11809;56.390;-3.266;2023-02-13T17:17:41;102506.53;;;17.02;53.57
23281;BME280;11809;56.390;-3.266;2023-02-13T17:20:14;102510.94;;;17.03;53.46
23281;BME280;11809;56.390;-3.266;2023-02-13T17:22:45;102504.06;;;16.98;53.91
23281;BME280;11809;56.390;-3.266;2023-02-13T17:25:26;102516.28;;;17.02;53.91
23281;BME280;11809;56.390;-3.266;2023-02-13T17:27:57;102516.34;;;17.00;53.71
23281;BME280;11809;56.390;-3.266;2023-02-13T17:30:30;102525.44;;;16.93;52.94
23281;BME280;11809;56.390;-3.266;2023-02-13T17:33:00;102516.59;;;16.69;50.59
23281;BME280;11809;56.390;-3.266;2023-02-13T17:35:28;102514.47;;;16.79;52.02
23281;BME280;11809;56.390;-3.266;2023-02-13T17:37:56;102519.50;;;16.86;52.39
23281;BME280;11809;56.390;-3.266;2023-02-13T17:40:24;102515.75;;;16.92;52.57
23281;BME280;11809;56.390;-3.266;2023-02-13T17:42:55;102520.03;;;16.96;52.26
23281;BME280;11809;56.390;-3.266;2023-02-13T17:45:24;102520.81;;;16.98;52.18
23281;BME280;11809;56.390;-3.266;2023-02-13T17:47:51;102515.47;;;17.00;52.40
23281;BME280;11809;56.390;-3.266;2023-02-13T17:50:19;102509.28;;;16.99;52.49
23281;BME280;11809;56.390;-3.266;2023-02-13T17:52:46;102510.09;;;17.01;52.50
23281;BME280;11809;56.390;-3.266;2023-02-13T17:55:16;102515.28;;;17.04;52.69
23281;BME280;11809;56.390;-3.266;2023-02-13T17:57:43;102512.63;;;17.04;52.63
23281;BME280;11809;56.390;-3.266;2023-02-13T18:00:11;102518.75;;;17.06;52.62
23281;BME280;11809;56.390;-3.266;2023-02-13T18:02:38;102509.22;;;17.01;52.72
23281;BME280;11809;56.390;-3.266;2023-02-13T18:05:05;102523.97;;;17.09;52.55
23281;BME280;11809;56.390;-3.266;2023-02-13T18:07:32;102534.44;;;17.14;52.87
23281;BME280;11809;56.390;-3.266;2023-02-13T18:09:59;102528.06;;;17.18;52.92
23281;BME280;11809;56.390;-3.266;2023-02-13T18:12:26;102536.91;;;17.18;52.56
23281;BME280;11809;56.390;-3.266;2023-02-13T18:14:53;102531.72;;;17.15;52.39
23281;BME280;11809;56.390;-3.266;2023-02-13T18:17:20;102539.59;;;17.17;52.80
23281;BME280;11809;56.390;-3.266;2023-02-13T18:19:47;102534.19;;;17.20;52.65
23281;BME280;11809;56.390;-3.266;2023-02-13T18:22:16;102527.09;;;17.20;52.78
23281;BME280;11809;56.390;-3.266;2023-02-13T18:24:43;102543.59;;;17.28;52.63
23281;BME280;11809;56.390;-3.266;2023-02-13T18:27:10;102533.75;;;17.32;52.45
23281;BME280;11809;56.390;-3.266;2023-02-13T18:29:38;102530.97;;;17.35;52.21
23281;BME280;11809;56.390;-3.266;2023-02-13T18:32:07;102537.69;;;17.43;52.31
23281;BME280;11809;56.390;-3.266;2023-02-13T18:34:37;102544.63;;;17.47;52.35
23281;BME280;11809;56.390;-3.266;2023-02-13T18:37:05;102531.47;;;17.44;52.29
23281;BME280;11809;56.390;-3.266;2023-02-13T18:39:33;102542.66;;;17.52;51.81
23281;BME280;11809;56.390;-3.266;2023-02-13T18:42:03;102547.03;;;17.55;51.97
23281;BME280;11809;56.390;-3.266;2023-02-13T18:44:31;102549.50;;;17.60;51.75
23281;BME280;11809;56.390;-3.266;2023-02-13T18:46:59;102538.16;;;17.56;51.62
23281;BME280;11809;56.390;-3.266;2023-02-13T18:49:26;102543.03;;;17.67;51.56
23281;BME280;11809;56.390;-3.266;2023-02-13T18:51:54;102530.34;;;17.73;51.37
23281;BME280;11809;56.390;-3.266;2023-02-13T18:54:21;102525.78;;;17.77;51.26
23281;BME280;11809;56.390;-3.266;2023-02-13T18:56:49;102534.06;;;17.91;51.10
23281;BME280;11809;56.390;-3.266;2023-02-13T18:59:19;102538.09;;;18.01;50.95
23281;BME280;11809;56.390;-3.266;2023-02-13T19:01:49;102533.31;;;18.09;50.76
23281;BME280;11809;56.390;-3.266;2023-02-13T19:04:19;102532.91;;;18.18;50.74
23281;BME280;11809;56.390;-3.266;2023-02-13T19:06:49;102518.69;;;18.19;50.74
23281;BME280;11809;56.390;-3.266;2023-02-13T19:09:16;102521.78;;;18.30;50.45
23281;BME280;11809;56.390;-3.266;2023-02-13T19:11:44;102515.78;;;18.25;50.57
23281;BME280;11809;56.390;-3.266;2023-02-13T19:14:12;102511.13;;;18.30;50.53
23281;BME280;11809;56.390;-3.266;2023-02-13T19:16:40;102517.91;;;18.37;50.29
23281;BME280;11809;56.390;-3.266;2023-02-13T19:19:09;102516.03;;;18.39;50.24
23281;BME280;11809;56.390;-3.266;2023-02-13T19:21:39;102520.44;;;18.40;50.31
23281;BME280;11809;56.390;-3.266;2023-02-13T19:24:09;102517.53;;;18.46;50.21
23281;BME280;11809;56.390;-3.266;2023-02-13T19:26:37;102511.72;;;18.37;50.08
23281;BME280;11809;56.390;-3.266;2023-02-13T19:29:05;102521.09;;;18.45;50.23
23281;BME280;11809;56.390;-3.266;2023-02-13T19:31:35;102517.03;;;18.37;48.97
23281;BME280;11809;56.390;-3.266;2023-02-13T19:34:02;102522.22;;;18.40;49.62
23281;BME280;11809;56.390;-3.266;2023-02-13T19:36:32;102517.66;;;18.43;49.50
23281;BME280;11809;56.390;-3.266;2023-02-13T19:39:01;102518.44;;;18.45;49.52
23281;BME280;11809;56.390;-3.266;2023-02-13T19:41:32;102500.00;;;18.41;49.64
23281;BME280;11809;56.390;-3.266;2023-02-13T19:44:00;102505.13;;;18.45;49.56
23281;BME280;11809;56.390;-3.266;2023-02-13T19:46:29;102504.22;;;18.46;49.65
23281;BME280;11809;56.390;-3.266;2023-02-13T19:48:59;102514.88;;;18.46;49.74
23281;BME280;11809;56.390;-3.266;2023-02-13T19:51:28;102514.19;;;18.41;49.86
23281;BME280;11809;56.390;-3.266;2023-02-13T19:54:07;102495.28;;;18.27;50.01
23281;BME280;11809;56.390;-3.266;2023-02-13T19:56:36;102511.84;;;18.34;49.98
23281;BME280;11809;56.390;-3.266;2023-02-13T19:59:05;102512.84;;;18.31;50.14
23281;BME280;11809;56.390;-3.266;2023-02-13T20:01:33;102510.19;;;18.31;50.21
23281;BME280;11809;56.390;-3.266;2023-02-13T20:04:01;102518.16;;;18.31;50.29
23281;BME280;11809;56.390;-3.266;2023-02-13T20:06:34;102511.03;;;18.32;50.16
23281;BME280;11809;56.390;-3.266;2023-02-13T20:09:06;102502.28;;;18.30;50.18
23281;BME280;11809;56.390;-3.266;2023-02-13T20:11:39;102504.72;;;18.34;50.01
23281;BME280;11809;56.390;-3.266;2023-02-13T20:14:09;102488.84;;;18.33;49.97
23281;BME280;11809;56.390;-3.266;2023-02-13T20:16:41;102500.22;;;18.36;49.79
23281;BME280;11809;56.390;-3.266;2023-02-13T20:19:12;102505.34;;;18.41;50.22
23281;BME280;11809;56.390;-3.266;2023-02-13T20:21:41;102507.75;;;18.47;50.00
23281;BME280;11809;56.390;-3.266;2023-02-13T20:24:11;102498.72;;;18.51;50.09
23281;BME280;11809;56.390;-3.266;2023-02-13T20:26:40;102513.69;;;18.53;49.93
23281;BME280;11809;56.390;-3.266;2023-02-13T20:29:12;102507.44;;;18.54;49.99
23281;BME280;11809;56.390;-3.266;2023-02-13T20:31:41;102501.28;;;18.52;50.11
23281;BME280;11809;56.390;-3.266;2023-02-13T20:34:09;102506.63;;;18.52;50.07
23281;BME280;11809;56.390;-3.266;2023-02-13T20:36:37;102504.13;;;18.49;50.43
23281;BME280;11809;56.390;-3.266;2023-02-13T20:39:06;102506.56;;;18.54;51.16
23281;BME280;11809;56.390;-3.266;2023-02-13T20:41:35;102512.81;;;18.53;51.11
23281;BME280;11809;56.390;-3.266;2023-02-13T20:44:08;102516.22;;;18.56;51.10
23281;BME280;11809;56.390;-3.266;2023-02-13T20:46:37;102514.44;;;18.57;51.42
23281;BME280;11809;56.390;-3.266;2023-02-13T20:49:06;102500.47;;;18.52;51.09
23281;BME280;11809;56.390;-3.266;2023-02-13T20:51:33;102506.56;;;18.54;51.31
23281;BME280;11809;56.390;-3.266;2023-02-13T20:54:03;102514.22;;;18.61;51.17
23281;BME280;11809;56.390;-3.266;2023-02-13T20:56:31;102510.09;;;18.54;50.00
23281;BME280;11809;56.390;-3.266;2023-02-13T20:58:59;102505.31;;;18.62;50.66
23281;BME280;11809;56.390;-3.266;2023-02-13T21:01:31;102518.28;;;18.70;50.67
23281;BME280;11809;56.390;-3.266;2023-02-13T21:04:01;102513.00;;;18.68;50.49
23281;BME280;11809;56.390;-3.266;2023-02-13T21:06:35;102509.34;;;18.71;50.28
23281;BME280;11809;56.390;-3.266;2023-02-13T21:09:05;102513.81;;;18.70;50.22
23281;BME280;11809;56.390;-3.266;2023-02-13T21:11:36;102495.44;;;18.64;50.01
23281;BME280;11809;56.390;-3.266;2023-02-13T21:14:04;102515.50;;;18.73;50.00
23281;BME280;11809;56.390;-3.266;2023-02-13T21:16:35;102510.22;;;18.71;50.08
23281;BME280;11809;56.390;-3.266;2023-02-13T21:19:12;102507.63;;;18.70;50.05
23281;BME280;11809;56.390;-3.266;2023-02-13T21:21:42;102505.84;;;18.70;49.87
23281;BME280;11809;56.390;-3.266;2023-02-13T21:24:15;102506.84;;;18.68;49.81
23281;BME280;11809;56.390;-3.266;2023-02-13T21:26:44;102499.84;;;18.65;49.61
23281;BME280;11809;56.390;-3.266;2023-02-13T21:29:13;102499.03;;;18.63;49.57
23281;BME280;11809;56.390;-3.266;2023-02-13T21:31:42;102501.78;;;18.62;49.76
23281;BME280;11809;56.390;-3.266;2023-02-13T21:34:17;102499.44;;;18.54;49.60
23281;BME280;11809;56.390;-3.266;2023-02-13T21:36:47;102497.44;;;18.59;49.64
23281;BME280;11809;56.390;-3.266;2023-02-13T21:39:16;102484.66;;;18.47;49.02
23281;BME280;11809;56.390;-3.266;2023-02-13T21:41:44;102489.13;;;18.47;48.68
23281;BME280;11809;56.390;-3.266;2023-02-13T21:44:15;102494.75;;;18.39;48.68
23281;BME280;11809;56.390;-3.266;2023-02-13T21:46:48;102502.13;;;18.33;48.67
23281;BME280;11809;56.390;-3.266;2023-02-13T21:49:18;102503.25;;;18.27;49.21
23281;BME280;11809;56.390;-3.266;2023-02-13T21:51:46;102499.69;;;18.28;49.33
23281;BME280;11809;56.390;-3.266;2023-02-13T21:54:15;102492.66;;;18.26;49.21
23281;BME280;11809;56.390;-3.266;2023-02-13T21:56:47;102472.78;;;18.14;48.99
23281;BME280;11809;56.390;-3.266;2023-02-13T21:59:17;102476.31;;;18.14;49.21
23281;BME280;11809;56.390;-3.266;2023-02-13T22:01:47;102501.59;;;18.25;49.63
23281;BME280;11809;56.390;-3.266;2023-02-13T22:04:22;102492.63;;;17.85;49.12
23281;BME280;11809;56.390;-3.266;2023-02-13T22:06:52;102494.09;;;17.71;48.46
23281;BME280;11809;56.390;-3.266;2023-02-13T22:09:20;102490.09;;;17.61;50.00
23281;BME280;11809;56.390;-3.266;2023-02-13T22:11:51;102481.47;;;17.54;50.27
23281;BME280;11809;56.390;-3.266;2023-02-13T22:14:19;102499.25;;;17.52;50.30
23281;BME280;11809;56.390;-3.266;2023-02-13T22:16:49;102504.88;;;17.44;50.54
23281;BME280;11809;56.390;-3.266;2023-02-13T22:19:19;102499.81;;;17.38;50.72
23281;BME280;11809;56.390;-3.266;2023-02-13T22:21:49;102497.41;;;17.32;50.86
23281;BME280;11809;56.390;-3.266;2023-02-13T22:24:16;102496.06;;;17.21;50.88
23281;BME280;11809;56.390;-3.266;2023-02-13T22:26:46;102494.31;;;17.20;50.87
23281;BME280;11809;56.390;-3.266;2023-02-13T22:29:15;102491.84;;;17.15;51.11
23281;BME280;11809;56.390;-3.266;2023-02-13T22:31:43;102473.75;;;17.03;51.10
23281;BME280;11809;56.390;-3.266;2023-02-13T22:34:11;102493.13;;;17.05;51.24
23281;BME280;11809;56.390;-3.266;2023-02-13T22:36:40;102493.28;;;17.01;51.25
23281;BME280;11809;56.390;-3.266;2023-02-13T22:39:10;102489.13;;;16.93;51.38
23281;BME280;11809;56.390;-3.266;2023-02-13T22:41:38;102491.97;;;16.89;51.56
23281;BME280;11809;56.390;-3.266;2023-02-13T22:44:05;102488.63;;;16.84;51.57
23281;BME280;11809;56.390;-3.266;2023-02-13T22:46:33;102492.28;;;16.80;51.65
23281;BME280;11809;56.390;-3.266;2023-02-13T22:49:02;102486.28;;;16.75;51.68
23281;BME280;11809;56.390;-3.266;2023-02-13T22:51:32;102495.31;;;16.71;51.85
23281;BME280;11809;56.390;-3.266;2023-02-13T22:54:04;102492.75;;;16.68;51.79
23281;BME280;11809;56.390;-3.266;2023-02-13T22:56:32;102496.44;;;16.64;51.88
23281;BME280;11809;56.390;-3.266;2023-02-13T22:59:00;102485.06;;;16.60;52.04
23281;BME280;11809;56.390;-3.266;2023-02-13T23:01:28;102485.19;;;16.57;52.21
23281;BME280;11809;56.390;-3.266;2023-02-13T23:04:01;102489.78;;;16.51;51.99
23281;BME280;11809;56.390;-3.266;2023-02-13T23:06:28;102475.06;;;16.42;52.29
23281;BME280;11809;56.390;-3.266;2023-02-13T23:08:56;102469.00;;;16.38;52.32
23281;BME280;11809;56.390;-3.266;2023-02-13T23:11:26;102470.72;;;16.39;52.28
23281;BME280;11809;56.390;-3.266;2023-02-13T23:14:12;102474.41;;;16.35;52.33
23281;BME280;11809;56.390;-3.266;2023-02-13T23:16:41;102472.78;;;16.31;52.64
23281;BME280;11809;56.390;-3.266;2023-02-13T23:19:26;102468.44;;;16.29;52.56
23281;BME280;11809;56.390;-3.266;2023-02-13T23:21:55;102477.38;;;16.26;52.45
23281;BME280;11809;56.390;-3.266;2023-02-13T23:24:22;102460.97;;;16.15;52.63
23281;BME280;11809;56.390;-3.266;2023-02-13T23:26:50;102468.81;;;16.18;52.60
23281;BME280;11809;56.390;-3.266;2023-02-13T23:29:17;102473.41;;;16.13;52.89
23281;BME280;11809;56.390;-3.266;2023-02-13T23:31:44;102466.41;;;16.12;52.68
23281;BME280;11809;56.390;-3.266;2023-02-13T23:34:11;102467.41;;;16.08;52.83
23281;BME280;11809;56.390;-3.266;2023-02-13T23:36:38;102450.00;;;16.00;52.78
23281;BME280;11809;56.390;-3.266;2023-02-13T23:39:05;102457.84;;;16.04;52.76
23281;BME280;11809;56.390;-3.266;2023-02-13T23:41:32;102464.94;;;16.02;52.71
23281;BME280;11809;56.390;-3.266;2023-02-13T23:43:59;102446.66;;;15.95;52.78
23281;BME280;11809;56.390;-3.266;2023-02-13T23:46:27;102458.13;;;15.95;52.91
23281;BME280;11809;56.390;-3.266;2023-02-13T23:48:54;102459.97;;;15.93;53.11
23281;BME280;11809;56.390;-3.266;2023-02-13T23:51:21;102470.69;;;15.90;53.03
23281;BME280;11809;56.390;-3.266;2023-02-13T23:53:48;102464.56;;;15.88;52.99
23281;BME280;11809;56.390;-3.266;2023-02-13T23:56:18;102454.97;;;15.84;53.06
23281;BME280;11809;56.390;-3.266;2023-02-13T23:58:45;102455.03;;;15.83;53.31
